IGO251V VAAH-VABB
Flight info
| Callsign | IGO251V |
|---|---|
| Flight time | 0h 49m |
| Altitude | 33000 |
| Route | BVR1A BVR R458 BOFIN POKON2B |
| Aircraft | A320/M-SDE3FGHIRWY/LB1 |
Departure
| Time | 2026-05-08 04:41 |
|---|---|
| Airport | Sardar Vallabh Patel International Airport (VAAH) |
Arrival
| Time | 2026-05-08 05:30 |
|---|---|
| Airport | Chhatrapati Shivaji Maharaj International Airport (VABB) |
| Time | Latitude | Longitude | Altitude | Speed | Heading |
|---|---|---|---|---|---|
| 2026-05-08 04:18 | 23.07073 | 72.61971 | 203 ft | 0 kts | 46° |
| 2026-05-08 04:26 | 23.07071 | 72.61968 | 195 ft | 0 kts | 46° |
| 2026-05-08 04:29 | 23.07067 | 72.61964 | 195 ft | 2 kts | 47° |
| 2026-05-08 04:29 | 23.07054 | 72.61947 | 209 ft | 3 kts | 56° |
| 2026-05-08 04:30 | 23.07044 | 72.61928 | 202 ft | 3 kts | 73° |
| 2026-05-08 04:30 | 23.07041 | 72.61909 | 210 ft | 3 kts | 108° |
| 2026-05-08 04:30 | 23.07047 | 72.61897 | 202 ft | 1 kts | 135° |
| 2026-05-08 04:30 | 23.07049 | 72.61894 | 200 ft | 0 kts | 135° |
| 2026-05-08 04:33 | 23.07042 | 72.61902 | 210 ft | 3 kts | 135° |
| 2026-05-08 04:33 | 23.07021 | 72.61925 | 202 ft | 6 kts | 135° |
| 2026-05-08 04:33 | 23.06987 | 72.61961 | 198 ft | 8 kts | 135° |
| 2026-05-08 04:33 | 23.06942 | 72.62013 | 207 ft | 11 kts | 133° |
| 2026-05-08 04:34 | 23.06892 | 72.62081 | 210 ft | 12 kts | 97° |
| 2026-05-08 04:34 | 23.06888 | 72.62177 | 195 ft | 16 kts | 132° |
| 2026-05-08 04:34 | 23.06866 | 72.62282 | 202 ft | 17 kts | 47° |
| 2026-05-08 04:34 | 23.06957 | 72.62379 | 201 ft | 19 kts | 45° |
| 2026-05-08 04:35 | 23.07063 | 72.62494 | 202 ft | 24 kts | 45° |
| 2026-05-08 04:35 | 23.07190 | 72.62630 | 200 ft | 27 kts | 45° |
| 2026-05-08 04:35 | 23.07330 | 72.62777 | 193 ft | 24 kts | 44° |
| 2026-05-08 04:35 | 23.07446 | 72.62901 | 198 ft | 23 kts | 44° |
| 2026-05-08 04:36 | 23.07565 | 72.63026 | 204 ft | 25 kts | 44° |
| 2026-05-08 04:36 | 23.07691 | 72.63157 | 200 ft | 22 kts | 44° |
| 2026-05-08 04:36 | 23.07809 | 72.63285 | 205 ft | 26 kts | 46° |
| 2026-05-08 04:36 | 23.07882 | 72.63410 | 191 ft | 13 kts | 109° |
| 2026-05-08 04:37 | 23.07868 | 72.63429 | 199 ft | 0 kts | 132° |
| 2026-05-08 04:37 | 23.07867 | 72.63430 | 198 ft | 1 kts | 132° |
| 2026-05-08 04:37 | 23.07850 | 72.63451 | 197 ft | 6 kts | 131° |
| 2026-05-08 04:37 | 23.07816 | 72.63492 | 202 ft | 9 kts | 129° |
| 2026-05-08 04:38 | 23.07831 | 72.63563 | 200 ft | 14 kts | 44° |
| 2026-05-08 04:38 | 23.07918 | 72.63653 | 199 ft | 20 kts | 43° |
| 2026-05-08 04:38 | 23.08030 | 72.63773 | 201 ft | 24 kts | 45° |
| 2026-05-08 04:38 | 23.08158 | 72.63911 | 201 ft | 27 kts | 44° |
| 2026-05-08 04:39 | 23.08292 | 72.64054 | 200 ft | 27 kts | 44° |
| 2026-05-08 04:39 | 23.08363 | 72.64134 | 199 ft | 3 kts | 113° |
| 2026-05-08 04:39 | 23.08338 | 72.64138 | 207 ft | 6 kts | 176° |
| 2026-05-08 04:39 | 23.08302 | 72.64101 | 207 ft | 10 kts | 259° |
| 2026-05-08 04:40 | 23.08273 | 72.64035 | 204 ft | 0 kts | 224° |
| 2026-05-08 04:40 | 23.08255 | 72.64016 | 199 ft | 23 kts | 224° |
| 2026-05-08 04:40 | 23.07919 | 72.63654 | 194 ft | 112 kts | 224° |
| 2026-05-08 04:40 | 23.07193 | 72.62875 | 274 ft | 173 kts | 226° |
| 2026-05-08 04:41 | 23.06311 | 72.61921 | 969 ft | 183 kts | 227° |
| 2026-05-08 04:41 | 23.05355 | 72.60944 | 1169 ft | 199 kts | 224° |
| 2026-05-08 04:41 | 23.04273 | 72.59877 | 1385 ft | 221 kts | 226° |
| 2026-05-08 04:41 | 23.03128 | 72.58645 | 1741 ft | 246 kts | 229° |
| 2026-05-08 04:42 | 23.01877 | 72.57261 | 2270 ft | 262 kts | 227° |
| 2026-05-08 04:42 | 23.00583 | 72.55844 | 3067 ft | 266 kts | 226° |
| 2026-05-08 04:42 | 22.99257 | 72.54410 | 3708 ft | 272 kts | 225° |
| 2026-05-08 04:42 | 22.97914 | 72.52968 | 4176 ft | 273 kts | 224° |
| 2026-05-08 04:43 | 22.96576 | 72.51539 | 5019 ft | 275 kts | 224° |
| 2026-05-08 04:43 | 22.95202 | 72.50078 | 5680 ft | 277 kts | 224° |
| 2026-05-08 04:43 | 22.93723 | 72.48726 | 6433 ft | 280 kts | 212° |
| 2026-05-08 04:43 | 22.91975 | 72.47786 | 7241 ft | 283 kts | 198° |
| 2026-05-08 04:44 | 22.90092 | 72.47277 | 8064 ft | 284 kts | 192° |
| 2026-05-08 04:44 | 22.88152 | 72.46807 | 8889 ft | 287 kts | 192° |
| 2026-05-08 04:44 | 22.86188 | 72.46320 | 9679 ft | 292 kts | 193° |
| 2026-05-08 04:44 | 22.84193 | 72.45819 | 10332 ft | 300 kts | 193° |
| 2026-05-08 04:45 | 22.82080 | 72.45293 | 10565 ft | 323 kts | 193° |
| 2026-05-08 04:45 | 22.79832 | 72.44733 | 10975 ft | 336 kts | 193° |
| 2026-05-08 04:45 | 22.77530 | 72.44162 | 11580 ft | 342 kts | 193° |
| 2026-05-08 04:45 | 22.75189 | 72.43584 | 12218 ft | 348 kts | 193° |
| 2026-05-08 04:46 | 22.72814 | 72.42996 | 12839 ft | 353 kts | 193° |
| 2026-05-08 04:46 | 22.70475 | 72.42414 | 13441 ft | 358 kts | 193° |
| 2026-05-08 04:46 | 22.68031 | 72.41808 | 14047 ft | 362 kts | 193° |
| 2026-05-08 04:46 | 22.65563 | 72.41197 | 14622 ft | 366 kts | 193° |
| 2026-05-08 04:47 | 22.63073 | 72.40581 | 15170 ft | 370 kts | 193° |
| 2026-05-08 04:47 | 22.60550 | 72.39957 | 15769 ft | 373 kts | 193° |
| 2026-05-08 04:47 | 22.58005 | 72.39330 | 16348 ft | 377 kts | 193° |
| 2026-05-08 04:47 | 22.55433 | 72.38696 | 16957 ft | 380 kts | 193° |
| 2026-05-08 04:48 | 22.52843 | 72.38060 | 17547 ft | 384 kts | 193° |
| 2026-05-08 04:48 | 22.50234 | 72.37416 | 18168 ft | 386 kts | 194° |
| 2026-05-08 04:48 | 22.47596 | 72.36762 | 18667 ft | 390 kts | 194° |
| 2026-05-08 04:48 | 22.44945 | 72.36106 | 19164 ft | 393 kts | 194° |
| 2026-05-08 04:49 | 22.42263 | 72.35445 | 19638 ft | 397 kts | 194° |
| 2026-05-08 04:49 | 22.39551 | 72.34777 | 20103 ft | 402 kts | 194° |
| 2026-05-08 04:49 | 22.36815 | 72.34104 | 20560 ft | 406 kts | 194° |
| 2026-05-08 04:49 | 22.34069 | 72.33426 | 21005 ft | 410 kts | 195° |
| 2026-05-08 04:50 | 22.31265 | 72.32737 | 21440 ft | 414 kts | 195° |
| 2026-05-08 04:50 | 22.28440 | 72.32046 | 21864 ft | 418 kts | 195° |
| 2026-05-08 04:50 | 22.25591 | 72.31348 | 22305 ft | 422 kts | 195° |
| 2026-05-08 04:50 | 22.22710 | 72.30640 | 22740 ft | 426 kts | 196° |
| 2026-05-08 04:51 | 22.19806 | 72.29925 | 23167 ft | 430 kts | 196° |
| 2026-05-08 04:51 | 22.16877 | 72.29201 | 23542 ft | 434 kts | 196° |
| 2026-05-08 04:51 | 22.13921 | 72.28472 | 23904 ft | 437 kts | 196° |
| 2026-05-08 04:51 | 22.10952 | 72.27740 | 24280 ft | 439 kts | 197° |
| 2026-05-08 04:52 | 22.07971 | 72.27006 | 24655 ft | 441 kts | 197° |
| 2026-05-08 04:52 | 22.04970 | 72.26270 | 25030 ft | 443 kts | 197° |
| 2026-05-08 04:52 | 22.01963 | 72.25537 | 25391 ft | 445 kts | 197° |
| 2026-05-08 04:52 | 21.98975 | 72.24810 | 25766 ft | 447 kts | 197° |
| 2026-05-08 04:53 | 21.95939 | 72.24071 | 26136 ft | 448 kts | 197° |
| 2026-05-08 04:53 | 21.92890 | 72.23328 | 26499 ft | 450 kts | 197° |
| 2026-05-08 04:53 | 21.89831 | 72.22579 | 26854 ft | 452 kts | 197° |
| 2026-05-08 04:53 | 21.86756 | 72.21823 | 27203 ft | 454 kts | 197° |
| 2026-05-08 04:54 | 21.83677 | 72.21068 | 27545 ft | 456 kts | 197° |
| 2026-05-08 04:54 | 21.80572 | 72.20308 | 27884 ft | 458 kts | 197° |
| 2026-05-08 04:54 | 21.77425 | 72.19682 | 28236 ft | 463 kts | 189° |
| 2026-05-08 04:54 | 21.74195 | 72.19574 | 28639 ft | 468 kts | 180° |
| 2026-05-08 04:55 | 21.70943 | 72.20033 | 29002 ft | 475 kts | 170° |
| 2026-05-08 04:55 | 21.67727 | 72.20875 | 29365 ft | 478 kts | 169° |
| 2026-05-08 04:55 | 21.64487 | 72.21732 | 29729 ft | 480 kts | 169° |
| 2026-05-08 04:55 | 21.61235 | 72.22586 | 30064 ft | 482 kts | 169° |
| 2026-05-08 04:56 | 21.57971 | 72.23439 | 30353 ft | 484 kts | 169° |
| 2026-05-08 04:56 | 21.54684 | 72.24294 | 30641 ft | 486 kts | 169° |
| 2026-05-08 04:56 | 21.51388 | 72.25151 | 30924 ft | 489 kts | 169° |
| 2026-05-08 04:56 | 21.48076 | 72.26012 | 31195 ft | 491 kts | 169° |
| 2026-05-08 04:57 | 21.44752 | 72.26876 | 31519 ft | 492 kts | 169° |
| 2026-05-08 04:57 | 21.41429 | 72.27741 | 31958 ft | 490 kts | 169° |
| 2026-05-08 04:57 | 21.38116 | 72.28605 | 32397 ft | 489 kts | 169° |
| 2026-05-08 04:57 | 21.34807 | 72.29468 | 32750 ft | 490 kts | 169° |
| 2026-05-08 04:58 | 21.28091 | 72.31215 | 32865 ft | 505 kts | 169° |
| 2026-05-08 04:58 | 21.21184 | 72.33005 | 32869 ft | 514 kts | 169° |
| 2026-05-08 04:59 | 21.14221 | 72.34813 | 32868 ft | 515 kts | 169° |
| 2026-05-08 04:59 | 21.07257 | 72.36624 | 32868 ft | 515 kts | 169° |
| 2026-05-08 05:00 | 21.00288 | 72.38432 | 32871 ft | 515 kts | 169° |
| 2026-05-08 05:00 | 20.93359 | 72.40222 | 32867 ft | 515 kts | 169° |
| 2026-05-08 05:01 | 20.86385 | 72.42014 | 32858 ft | 515 kts | 169° |
| 2026-05-08 05:01 | 20.79425 | 72.43794 | 32870 ft | 514 kts | 169° |
| 2026-05-08 05:02 | 20.72407 | 72.44966 | 32874 ft | 508 kts | 184° |
| 2026-05-08 05:02 | 20.65579 | 72.43574 | 32868 ft | 497 kts | 204° |
| 2026-05-08 05:03 | 20.59122 | 72.40929 | 32871 ft | 497 kts | 204° |
| 2026-05-08 05:03 | 20.52764 | 72.38345 | 32669 ft | 476 kts | 204° |
| 2026-05-08 05:04 | 20.49703 | 72.37108 | 32426 ft | 465 kts | 204° |
| 2026-05-08 05:04 | 20.46714 | 72.35898 | 32180 ft | 455 kts | 204° |
| 2026-05-08 05:04 | 20.43788 | 72.34711 | 31936 ft | 445 kts | 204° |
| 2026-05-08 05:04 | 20.40915 | 72.33539 | 31697 ft | 440 kts | 205° |
| 2026-05-08 05:05 | 20.38067 | 72.32373 | 31460 ft | 437 kts | 205° |
| 2026-05-08 05:05 | 20.35234 | 72.31214 | 31225 ft | 435 kts | 205° |
| 2026-05-08 05:05 | 20.32415 | 72.30064 | 30995 ft | 433 kts | 205° |
| 2026-05-08 05:05 | 20.29605 | 72.28923 | 30762 ft | 432 kts | 205° |
| 2026-05-08 05:06 | 20.27748 | 72.28168 | 30613 ft | 430 kts | 205° |
| 2026-05-08 05:06 | 20.24954 | 72.27031 | 30384 ft | 429 kts | 205° |
| 2026-05-08 05:06 | 20.22172 | 72.25902 | 30159 ft | 427 kts | 205° |
| 2026-05-08 05:06 | 20.19402 | 72.24781 | 29910 ft | 425 kts | 204° |
| 2026-05-08 05:07 | 20.16644 | 72.23666 | 29650 ft | 423 kts | 204° |
| 2026-05-08 05:07 | 20.13899 | 72.22556 | 29384 ft | 421 kts | 204° |
| 2026-05-08 05:07 | 20.11166 | 72.21451 | 29128 ft | 420 kts | 204° |
| 2026-05-08 05:07 | 20.08440 | 72.20348 | 28864 ft | 418 kts | 204° |
| 2026-05-08 05:08 | 20.05731 | 72.19248 | 28615 ft | 417 kts | 204° |
| 2026-05-08 05:08 | 20.03025 | 72.18147 | 28358 ft | 415 kts | 204° |
| 2026-05-08 05:08 | 20.00330 | 72.17053 | 28105 ft | 414 kts | 204° |
| 2026-05-08 05:08 | 19.97642 | 72.15965 | 27859 ft | 411 kts | 204° |
| 2026-05-08 05:09 | 19.94987 | 72.14893 | 27480 ft | 407 kts | 204° |
| 2026-05-08 05:09 | 19.92343 | 72.13827 | 27037 ft | 405 kts | 204° |
| 2026-05-08 05:09 | 19.89717 | 72.12767 | 26605 ft | 403 kts | 204° |
| 2026-05-08 05:09 | 19.87140 | 72.11728 | 26190 ft | 401 kts | 204° |
| 2026-05-08 05:10 | 19.84609 | 72.10707 | 25776 ft | 399 kts | 204° |
| 2026-05-08 05:10 | 19.79303 | 72.09339 | 25123 ft | 392 kts | 182° |
| 2026-05-08 05:10 | 19.76610 | 72.09713 | 24472 ft | 390 kts | 164° |
| 2026-05-08 05:11 | 19.74164 | 72.10854 | 24039 ft | 381 kts | 148° |
| 2026-05-08 05:11 | 19.72067 | 72.12582 | 23591 ft | 383 kts | 138° |
| 2026-05-08 05:11 | 19.70087 | 72.14470 | 23089 ft | 383 kts | 138° |
| 2026-05-08 05:11 | 19.68102 | 72.16357 | 22612 ft | 382 kts | 138° |
| 2026-05-08 05:12 | 19.66121 | 72.18237 | 22145 ft | 381 kts | 138° |
| 2026-05-08 05:12 | 19.64148 | 72.20107 | 21730 ft | 379 kts | 137° |
| 2026-05-08 05:12 | 19.62193 | 72.21961 | 21273 ft | 377 kts | 137° |
| 2026-05-08 05:12 | 19.60268 | 72.23785 | 20997 ft | 371 kts | 137° |
| 2026-05-08 05:13 | 19.58339 | 72.25614 | 20589 ft | 368 kts | 137° |
| 2026-05-08 05:13 | 19.56434 | 72.27423 | 20159 ft | 365 kts | 137° |
| 2026-05-08 05:13 | 19.54559 | 72.29201 | 19498 ft | 360 kts | 137° |
| 2026-05-08 05:13 | 19.52711 | 72.30952 | 18925 ft | 353 kts | 137° |
| 2026-05-08 05:14 | 19.50903 | 72.32664 | 18475 ft | 343 kts | 137° |
| 2026-05-08 05:14 | 19.49162 | 72.34314 | 18037 ft | 339 kts | 137° |
| 2026-05-08 05:14 | 19.47399 | 72.35984 | 17562 ft | 339 kts | 137° |
| 2026-05-08 05:14 | 19.45643 | 72.37647 | 17134 ft | 339 kts | 137° |
| 2026-05-08 05:15 | 19.43907 | 72.39292 | 16743 ft | 337 kts | 137° |
| 2026-05-08 05:15 | 19.42215 | 72.40894 | 16347 ft | 335 kts | 137° |
| 2026-05-08 05:15 | 19.40496 | 72.42519 | 15977 ft | 327 kts | 137° |
| 2026-05-08 05:15 | 19.38827 | 72.44096 | 15464 ft | 319 kts | 138° |
| 2026-05-08 05:16 | 19.37197 | 72.45635 | 15057 ft | 309 kts | 138° |
| 2026-05-08 05:16 | 19.35643 | 72.47104 | 14672 ft | 299 kts | 138° |
| 2026-05-08 05:16 | 19.34120 | 72.48545 | 14297 ft | 290 kts | 139° |
| 2026-05-08 05:16 | 19.32630 | 72.49952 | 13940 ft | 286 kts | 139° |
| 2026-05-08 05:17 | 19.31150 | 72.51347 | 13562 ft | 288 kts | 139° |
| 2026-05-08 05:17 | 19.29664 | 72.52751 | 13168 ft | 289 kts | 139° |
| 2026-05-08 05:17 | 19.28157 | 72.54174 | 12790 ft | 290 kts | 139° |
| 2026-05-08 05:17 | 19.26653 | 72.55593 | 12416 ft | 290 kts | 138° |
| 2026-05-08 05:18 | 19.25150 | 72.57011 | 12098 ft | 288 kts | 138° |
| 2026-05-08 05:18 | 19.23679 | 72.58397 | 11972 ft | 279 kts | 137° |
| 2026-05-08 05:18 | 19.22448 | 72.59943 | 11787 ft | 272 kts | 120° |
| 2026-05-08 05:18 | 19.21751 | 72.61748 | 11742 ft | 272 kts | 103° |
| 2026-05-08 05:19 | 19.21572 | 72.63677 | 11687 ft | 274 kts | 90° |
| 2026-05-08 05:19 | 19.21572 | 72.65696 | 11628 ft | 274 kts | 91° |
| 2026-05-08 05:19 | 19.21561 | 72.67706 | 11569 ft | 274 kts | 91° |
| 2026-05-08 05:19 | 19.21546 | 72.69725 | 11355 ft | 274 kts | 91° |
| 2026-05-08 05:20 | 19.21530 | 72.71704 | 11117 ft | 271 kts | 91° |
| 2026-05-08 05:20 | 19.21515 | 72.73649 | 10891 ft | 269 kts | 91° |
| 2026-05-08 05:20 | 19.21503 | 72.75554 | 10858 ft | 268 kts | 91° |
| 2026-05-08 05:20 | 19.21492 | 72.77436 | 10863 ft | 269 kts | 91° |
| 2026-05-08 05:21 | 19.21479 | 72.79363 | 10688 ft | 267 kts | 91° |
| 2026-05-08 05:21 | 19.21466 | 72.81289 | 10380 ft | 268 kts | 91° |
| 2026-05-08 05:21 | 19.21454 | 72.83235 | 10064 ft | 269 kts | 90° |
| 2026-05-08 05:21 | 19.21443 | 72.85145 | 9754 ft | 270 kts | 90° |
| 2026-05-08 05:22 | 19.21432 | 72.87136 | 9401 ft | 272 kts | 90° |
| 2026-05-08 05:22 | 19.21420 | 72.88857 | 9097 ft | 273 kts | 90° |
| 2026-05-08 05:22 | 19.21405 | 72.90704 | 8776 ft | 273 kts | 90° |
| 2026-05-08 05:22 | 19.21389 | 72.92688 | 8438 ft | 274 kts | 90° |
| 2026-05-08 05:23 | 19.21374 | 72.94699 | 8100 ft | 275 kts | 90° |
| 2026-05-08 05:23 | 19.21359 | 72.96729 | 7761 ft | 277 kts | 89° |
| 2026-05-08 05:23 | 19.21343 | 72.98774 | 7426 ft | 278 kts | 89° |
| 2026-05-08 05:23 | 19.21328 | 73.00824 | 7098 ft | 279 kts | 89° |
| 2026-05-08 05:24 | 19.21312 | 73.02864 | 6757 ft | 272 kts | 89° |
| 2026-05-08 05:24 | 19.21294 | 73.04825 | 6435 ft | 263 kts | 88° |
| 2026-05-08 05:24 | 19.21265 | 73.06760 | 6107 ft | 264 kts | 92° |
| 2026-05-08 05:24 | 19.20773 | 73.08635 | 5737 ft | 271 kts | 117° |
| 2026-05-08 05:25 | 19.19521 | 73.10141 | 5373 ft | 277 kts | 144° |
| 2026-05-08 05:25 | 19.17750 | 73.10922 | 5009 ft | 280 kts | 171° |
| 2026-05-08 05:25 | 19.15812 | 73.10795 | 4631 ft | 282 kts | 198° |
| 2026-05-08 05:25 | 19.14061 | 73.09877 | 4247 ft | 282 kts | 211° |
| 2026-05-08 05:26 | 19.12362 | 73.08816 | 3843 ft | 284 kts | 213° |
| 2026-05-08 05:26 | 19.10854 | 73.07454 | 3434 ft | 284 kts | 231° |
| 2026-05-08 05:26 | 19.09796 | 73.05764 | 3165 ft | 271 kts | 246° |
| 2026-05-08 05:26 | 19.09214 | 73.03930 | 2871 ft | 255 kts | 262° |
| 2026-05-08 05:27 | 19.09076 | 73.02117 | 2568 ft | 239 kts | 271° |
| 2026-05-08 05:27 | 19.09054 | 73.00440 | 2283 ft | 218 kts | 271° |
| 2026-05-08 05:27 | 19.09034 | 72.98921 | 2031 ft | 197 kts | 270° |
| 2026-05-08 05:27 | 19.09016 | 72.97559 | 1810 ft | 172 kts | 270° |
| 2026-05-08 05:28 | 19.09000 | 72.96376 | 1584 ft | 153 kts | 270° |
| 2026-05-08 05:28 | 19.08986 | 72.95285 | 1381 ft | 145 kts | 270° |
| 2026-05-08 05:28 | 19.08972 | 72.94223 | 1205 ft | 144 kts | 271° |
| 2026-05-08 05:28 | 19.08958 | 72.93171 | 1022 ft | 142 kts | 271° |
| 2026-05-08 05:29 | 19.08944 | 72.92128 | 856 ft | 141 kts | 270° |
| 2026-05-08 05:29 | 19.08930 | 72.91096 | 696 ft | 140 kts | 270° |
| 2026-05-08 05:29 | 19.08916 | 72.90077 | 529 ft | 138 kts | 270° |
| 2026-05-08 05:29 | 19.08902 | 72.89065 | 352 ft | 137 kts | 270° |
| 2026-05-08 05:30 | 19.08892 | 72.88060 | 161 ft | 137 kts | 270° |
| 2026-05-08 05:30 | 19.08887 | 72.87064 | 75 ft | 128 kts | 270° |
| 2026-05-08 05:30 | 19.08871 | 72.86228 | 47 ft | 94 kts | 266° |
| 2026-05-08 05:30 | 19.08857 | 72.85722 | 48 ft | 44 kts | 270° |
| 2026-05-08 05:31 | 19.08859 | 72.85495 | 50 ft | 30 kts | 275° |
| 2026-05-08 05:31 | 19.08926 | 72.85286 | 51 ft | 31 kts | 298° |
| 2026-05-08 05:31 | 19.09009 | 72.85246 | 50 ft | 8 kts | 45° |
| 2026-05-08 05:31 | 19.09021 | 72.85289 | 50 ft | 0 kts | 88° |
| 2026-05-08 05:32 | 19.09022 | 72.85304 | 50 ft | 5 kts | 88° |
| 2026-05-08 05:32 | 19.09023 | 72.85370 | 49 ft | 12 kts | 89° |
| 2026-05-08 05:32 | 19.09023 | 72.85385 | 49 ft | 0 kts | 89° |
| 2026-05-08 05:33 | 19.09024 | 72.85389 | 49 ft | 1 kts | 85° |
| 2026-05-08 05:33 | 19.09036 | 72.85400 | 48 ft | 3 kts | 19° |
| 2026-05-08 05:33 | 19.09066 | 72.85406 | 49 ft | 0 kts | 12° |
| 2026-05-08 05:33 | 19.09080 | 72.85409 | 49 ft | 4 kts | 11° |
| 2026-05-08 05:34 | 19.09118 | 72.85410 | 49 ft | 6 kts | 359° |
| 2026-05-08 05:34 | 19.09143 | 72.85410 | 49 ft | 1 kts | 359° |
| 2026-05-08 05:34 | 19.09156 | 72.85410 | 49 ft | 0 kts | 360° |
| 2026-05-08 05:34 | 19.09158 | 72.85410 | 49 ft | 0 kts | 360° |